Time;durP1;ratioP1;P1;durP2;ratioP2;P2;SDS_P1;SDS_P2;PMS_P1;PMS_P2;Temp;Humidity;BMP_temperature;BMP_pressure;BME280_temperature;BME280_humidity;BME280_pressure;Samples;Min_cycle;Max_cycle;Signal;HPM_P1;HPM_P2
2021/12/04 00:01:16;;;;;;;10.17;8.83;;;-1.00;99.90;;;;;;4990546;28;20178;-75
2021/12/04 00:03:42;;;;;;;9.30;8.40;;;-0.90;99.90;;;;;;4989762;28;20178;-75
2021/12/04 00:06:23;;;;;;;9.60;8.57;;;-0.90;99.90;;;;;;4995397;28;20292;-75
2021/12/04 00:08:49;;;;;;;9.13;7.77;;;-0.90;99.90;;;;;;4991848;28;20182;-75
2021/12/04 00:11:15;;;;;;;12.67;8.27;;;-0.90;99.90;;;;;;4992274;28;20228;-75
2021/12/04 00:13:41;;;;;;;14.07;8.93;;;-0.90;99.90;;;;;;4991312;28;20228;-75
2021/12/04 00:16:07;;;;;;;9.63;8.53;;;-0.80;99.90;;;;;;4988741;28;20713;-75
2021/12/04 00:18:32;;;;;;;9.13;8.23;;;-0.90;99.90;;;;;;4996982;28;20269;-75
2021/12/04 00:20:58;;;;;;;10.37;8.53;;;-0.90;99.90;;;;;;4992599;28;20284;-75
2021/12/04 00:23:24;;;;;;;12.20;8.73;;;-0.90;99.90;;;;;;4990627;28;20182;-75
2021/12/04 00:25:49;;;;;;;13.63;10.17;;;-0.80;99.90;;;;;;4988313;28;20213;-75
2021/12/04 00:28:15;;;;;;;9.90;8.37;;;-0.80;99.90;;;;;;4997285;28;20182;-75
2021/12/04 00:30:42;;;;;;;9.80;8.80;;;-0.80;99.90;;;;;;4988567;28;20193;-75
2021/12/04 00:33:23;;;;;;;10.67;9.23;;;-0.80;99.90;;;;;;4989410;28;20182;-74
2021/12/04 00:35:54;;;;;;;8.97;8.00;;;-0.80;99.90;;;;;;4985750;28;20178;-74
2021/12/04 00:51:32;;;;;;;10.57;9.13;;;-0.80;99.90;;;;;;4992627;28;20173;-75
2021/12/04 00:53:57;;;;;;;8.40;7.50;;;-0.80;99.90;;;;;;4989219;28;20681;-75
2021/12/04 00:56:24;;;;;;;9.93;8.87;;;-0.80;99.90;;;;;;4988998;28;20213;-74
2021/12/04 00:58:49;;;;;;;10.30;8.30;;;-0.80;99.90;;;;;;4990163;28;20194;-74
2021/12/04 01:01:17;;;;;;;13.33;8.33;;;-0.80;99.90;;;;;;4989228;28;20297;-75
2021/12/04 01:03:42;;;;;;;11.07;9.00;;;-0.80;99.90;;;;;;4986856;28;20182;-75
2021/12/04 01:06:08;;;;;;;9.27;8.33;;;-0.80;99.90;;;;;;4987482;28;20206;-75
2021/12/04 01:08:34;;;;;;;10.43;7.93;;;-0.80;99.90;;;;;;4990181;28;20654;-75
2021/12/04 01:11:02;;;;;;;9.87;8.83;;;-0.70;99.90;;;;;;4992543;28;20592;-74
2021/12/04 01:13:28;;;;;;;10.07;8.77;;;-0.80;99.90;;;;;;4995940;28;20704;-75
2021/12/04 01:15:54;;;;;;;9.63;7.60;;;-0.70;99.90;;;;;;4987848;28;20257;-75
2021/12/04 01:18:19;;;;;;;9.53;8.03;;;-0.60;99.90;;;;;;4989579;28;20214;-75
2021/12/04 01:20:45;;;;;;;8.90;7.83;;;-0.50;99.90;;;;;;4985982;28;20209;-75
2021/12/04 01:23:11;;;;;;;9.63;8.63;;;-0.40;99.90;;;;;;4991275;28;20190;-75
2021/12/04 01:25:37;;;;;;;8.70;7.80;;;-0.50;99.90;;;;;;4989948;28;20210;-75
2021/12/04 01:28:04;;;;;;;8.40;7.53;;;-0.40;99.90;;;;;;4988497;28;20202;-75
2021/12/04 01:30:30;;;;;;;9.53;8.23;;;-0.40;99.90;;;;;;4975285;28;20186;-75
2021/12/04 01:32:56;;;;;;;9.63;8.30;;;-0.40;99.90;;;;;;4988431;28;20568;-75
2021/12/04 01:35:22;;;;;;;8.77;7.77;;;-0.30;99.90;;;;;;4989963;28;20190;-75
2021/12/04 01:37:47;;;;;;;8.07;7.23;;;-0.30;99.90;;;;;;4966719;28;20214;-75
2021/12/04 01:40:13;;;;;;;11.63;8.33;;;-0.30;99.90;;;;;;4994106;28;20664;-75
2021/12/04 01:42:39;;;;;;;9.43;7.63;;;-0.30;99.90;;;;;;4991963;28;20205;-75
2021/12/04 01:45:06;;;;;;;9.00;7.43;;;-0.30;99.90;;;;;;4991893;28;20197;-75
2021/12/04 01:47:33;;;;;;;10.80;8.40;;;-0.30;99.90;;;;;;4974997;28;20209;-75
2021/12/04 01:50:00;;;;;;;9.37;7.80;;;-0.30;99.90;;;;;;4990525;28;20309;-75
2021/12/04 01:52:26;;;;;;;8.37;7.50;;;-0.30;99.90;;;;;;4971873;28;20202;-75
2021/12/04 01:54:52;;;;;;;9.93;7.60;;;-0.20;99.90;;;;;;4990215;28;20194;-75
2021/12/04 01:57:20;;;;;;;8.07;7.27;;;-0.30;99.90;;;;;;4990493;28;20581;-75
2021/12/04 01:59:47;;;;;;;9.27;7.57;;;-0.20;99.90;;;;;;4993445;28;20373;-75
2021/12/04 02:02:12;;;;;;;8.43;7.00;;;-0.30;99.90;;;;;;4987397;28;20682;-75
2021/12/04 02:04:39;;;;;;;9.07;8.17;;;-0.30;99.90;;;;;;4991045;28;20183;-75
2021/12/04 02:07:04;;;;;;;7.90;7.10;;;-0.30;99.90;;;;;;4990737;28;20749;-75
2021/12/04 02:09:34;;;;;;;8.47;7.50;;;-0.30;99.90;;;;;;4973000;28;20182;-75
2021/12/04 02:12:05;;;;;;;8.10;7.30;;;-0.30;99.90;;;;;;4991109;28;20178;-75
2021/12/04 02:14:32;;;;;;;7.93;7.13;;;-0.40;99.90;;;;;;4971103;28;20285;-75
2021/12/04 02:16:58;;;;;;;8.37;7.23;;;-0.30;99.90;;;;;;4985817;28;20210;-75
2021/12/04 02:19:24;;;;;;;8.07;7.00;;;-0.20;99.90;;;;;;4989517;28;20553;-75
2021/12/04 02:21:50;;;;;;;7.63;6.83;;;-0.20;99.90;;;;;;4988546;28;20284;-75
2021/12/04 02:24:16;;;;;;;7.33;6.63;;;-0.20;99.90;;;;;;4983770;28;20212;-75
2021/12/04 02:26:41;;;;;;;8.93;8.03;;;-0.20;99.90;;;;;;4989301;28;20567;-75
2021/12/04 02:29:07;;;;;;;8.13;7.33;;;-0.30;99.90;;;;;;4992560;28;20657;-75
2021/12/04 02:31:33;;;;;;;8.37;7.13;;;-0.30;99.90;;;;;;4991663;28;20711;-75
2021/12/04 02:33:59;;;;;;;7.40;6.70;;;-0.30;99.90;;;;;;4987038;28;20565;-74
2021/12/04 02:36:25;;;;;;;8.33;7.50;;;-0.30;99.90;;;;;;4993020;28;20214;-75
2021/12/04 02:38:52;;;;;;;8.33;7.50;;;-0.30;99.90;;;;;;4991316;28;20189;-75
2021/12/04 02:41:22;;;;;;;10.43;7.90;;;-0.30;99.90;;;;;;4989283;28;20333;-74
2021/12/04 02:43:49;;;;;;;7.57;6.80;;;-0.20;99.90;;;;;;4971209;28;20220;-75
2021/12/04 02:46:16;;;;;;;8.13;7.43;;;-0.30;99.90;;;;;;4992166;28;20205;-75
2021/12/04 02:48:44;;;;;;;8.83;7.97;;;-0.30;99.90;;;;;;4988079;28;20674;-75
2021/12/04 02:51:10;;;;;;;8.67;7.20;;;-0.20;99.90;;;;;;4972757;28;20182;-75
2021/12/04 02:53:36;;;;;;;8.40;7.27;;;-0.30;99.90;;;;;;4981681;28;20205;-75
2021/12/04 02:56:04;;;;;;;8.93;7.80;;;-0.40;99.90;;;;;;4991056;28;20244;-74
2021/12/04 02:58:32;;;;;;;8.67;7.50;;;-0.30;99.90;;;;;;4989689;28;20272;-74
2021/12/04 03:00:58;;;;;;;8.93;8.03;;;-0.30;99.90;;;;;;4989029;28;20200;-75
2021/12/04 03:03:24;;;;;;;8.10;7.23;;;-0.30;99.90;;;;;;4988325;28;20803;-75
2021/12/04 03:05:52;;;;;;;8.07;7.27;;;-0.30;99.90;;;;;;4992656;28;20210;-75
2021/12/04 03:08:18;;;;;;;9.27;8.47;;;-0.20;99.90;;;;;;4988539;28;20190;-75
2021/12/04 03:10:47;;;;;;;8.23;7.40;;;-0.20;99.90;;;;;;4985574;28;20197;-75
2021/12/04 03:13:14;;;;;;;7.73;7.00;;;-0.20;99.90;;;;;;4986497;28;20178;-75
2021/12/04 03:15:44;;;;;;;8.17;7.37;;;-0.20;99.90;;;;;;4983443;28;20285;-75
2021/12/04 03:18:10;;;;;;;8.13;7.33;;;-0.20;99.90;;;;;;4990657;28;20249;-75
2021/12/04 03:20:42;;;;;;;8.83;7.63;;;-0.30;99.90;;;;;;4990775;28;20201;-74
2021/12/04 03:23:16;;;;;;;10.23;7.83;;;-0.20;99.90;;;;;;4990494;28;20650;-75
2021/12/04 03:25:47;;;;;;;8.47;7.67;;;-0.10;99.90;;;;;;4979637;28;20604;-75
2021/12/04 03:28:15;;;;;;;8.90;8.00;;;-0.10;99.90;;;;;;4967131;28;20256;-74
2021/12/04 03:41:21;;;;;;;8.13;7.40;;;-0.30;99.90;;;;;;4983680;28;20197;-74
2021/12/04 03:43:47;;;;;;;8.57;7.63;;;-0.30;99.90;;;;;;4980090;28;20187;-75
2021/12/04 03:46:16;;;;;;;8.97;8.20;;;-0.20;99.90;;;;;;4989152;28;20271;-74
2021/12/04 03:51:08;;;;;;;8.57;7.70;;;-0.30;99.90;;;;;;4987843;28;20182;-75
2021/12/04 03:53:34;;;;;;;8.33;7.53;;;-0.30;99.90;;;;;;4987890;28;20186;-74
2021/12/04 03:56:00;;;;;;;8.67;7.97;;;-0.20;99.90;;;;;;4989472;28;20661;-74
2021/12/04 03:58:26;;;;;;;8.60;7.60;;;-0.20;99.90;;;;;;4984699;28;20192;-74
2021/12/04 04:00:52;;;;;;;8.50;7.63;;;-0.30;99.90;;;;;;4988645;28;20565;-75
2021/12/04 04:03:17;;;;;;;8.37;7.37;;;-0.40;99.90;;;;;;4988720;28;20193;-75
2021/12/04 04:05:43;;;;;;;9.13;8.03;;;-0.30;99.90;;;;;;4987586;28;20256;-75
2021/12/04 04:08:11;;;;;;;8.20;7.40;;;-0.20;99.90;;;;;;4974074;28;20194;-75
2021/12/04 04:10:37;;;;;;;8.83;7.90;;;-0.20;99.90;;;;;;4984743;28;20268;-75
2021/12/04 04:13:03;;;;;;;8.67;7.83;;;-0.20;99.90;;;;;;4985272;28;20268;-75
2021/12/04 04:15:29;;;;;;;8.93;8.00;;;-0.20;99.90;;;;;;4986943;28;20232;-75
2021/12/04 04:17:54;;;;;;;8.77;7.60;;;-0.40;99.90;;;;;;4984789;28;20202;-74
2021/12/04 04:20:21;;;;;;;8.80;7.53;;;-0.30;99.90;;;;;;4989172;28;20191;-75
2021/12/04 04:22:48;;;;;;;10.07;7.53;;;-0.20;99.90;;;;;;4977597;28;20590;-75
2021/12/04 04:25:16;;;;;;;8.73;7.40;;;-0.10;99.90;;;;;;4982822;28;20206;-75
2021/12/04 04:27:43;;;;;;;8.23;7.40;;;-0.10;99.90;;;;;;4982673;28;20201;-75
2021/12/04 04:30:13;;;;;;;8.00;7.20;;;-0.10;99.90;;;;;;4983133;28;20186;-75
2021/12/04 04:32:40;;;;;;;9.50;7.30;;;0.00;99.90;;;;;;4981670;28;20336;-75
2021/12/04 04:35:13;;;;;;;7.97;7.17;;;0.10;99.90;;;;;;4985232;28;20599;-75
2021/12/04 04:37:53;;;;;;;7.90;7.03;;;0.00;99.90;;;;;;4983661;28;20626;-74
2021/12/04 04:59:57;;;;;;;8.47;6.50;;;-0.10;99.90;;;;;;4988527;28;20200;-75
2021/12/04 05:13:19;;;;;;;6.23;5.70;;;-0.20;99.90;;;;;;4999168;28;20178;-72
2021/12/04 05:21:04;;;;;;;7.97;6.43;;;-0.30;99.90;;;;;;5005476;28;20225;-72
2021/12/04 05:23:34;;;;;;;8.13;6.93;;;-0.20;99.90;;;;;;4978108;28;20181;-72
2021/12/04 05:26:02;;;;;;;7.43;6.73;;;-0.30;99.90;;;;;;4997582;28;20213;-73
2021/12/04 05:28:28;;;;;;;7.00;6.40;;;-0.30;99.90;;;;;;4994504;28;20189;-73
2021/12/04 05:30:55;;;;;;;6.90;6.20;;;-0.40;99.90;;;;;;4971819;28;20213;-73
2021/12/04 05:33:21;;;;;;;7.60;6.87;;;-0.50;99.90;;;;;;4995764;28;20178;-72
2021/12/04 05:35:48;;;;;;;6.57;5.97;;;-0.60;99.90;;;;;;4984600;28;20189;-72
2021/12/04 05:38:15;;;;;;;7.37;6.53;;;-0.50;99.90;;;;;;5001723;28;20220;-72
2021/12/04 05:40:41;;;;;;;7.50;6.80;;;-0.50;99.90;;;;;;5000928;28;20188;-72
2021/12/04 05:43:07;;;;;;;8.03;7.23;;;-0.60;99.90;;;;;;4998073;28;20261;-72
2021/12/04 05:45:38;;;;;;;7.27;6.60;;;-0.70;99.90;;;;;;4994961;28;20707;-72
2021/12/04 05:48:10;;;;;;;8.10;7.30;;;-0.60;99.90;;;;;;4996027;28;20222;-72
2021/12/04 05:55:52;;;;;;;7.93;7.17;;;-0.60;99.90;;;;;;4992580;28;20193;-74
2021/12/04 05:58:27;;;;;;;7.63;6.93;;;-0.60;99.90;;;;;;4993661;28;20181;-74
2021/12/04 06:00:54;;;;;;;7.20;6.57;;;-0.50;99.90;;;;;;4993080;28;20212;-74
2021/12/04 06:03:20;;;;;;;8.43;7.53;;;-0.40;99.90;;;;;;4990357;28;20178;-73
2021/12/04 06:05:46;;;;;;;7.63;6.83;;;-0.40;99.90;;;;;;4993129;28;20723;-73
2021/12/04 06:08:12;;;;;;;7.67;6.87;;;-0.40;99.90;;;;;;4976749;28;20710;-73
2021/12/04 06:10:38;;;;;;;6.93;6.33;;;-0.50;99.90;;;;;;4993697;28;20656;-73
2021/12/04 06:13:04;;;;;;;7.43;6.83;;;-0.40;99.90;;;;;;4992747;28;20223;-73
2021/12/04 06:15:30;;;;;;;9.77;7.47;;;-0.30;99.90;;;;;;4993372;28;20269;-73
2021/12/04 06:17:56;;;;;;;7.23;6.53;;;-0.30;99.90;;;;;;4993013;28;20202;-73
2021/12/04 06:23:06;;;;;;;7.43;6.73;;;-0.20;99.90;;;;;;4991568;28;20675;-73
2021/12/04 06:25:32;;;;;;;7.47;6.87;;;-0.30;99.90;;;;;;4993626;28;20213;-73
2021/12/04 06:27:58;;;;;;;7.80;7.10;;;-0.40;99.90;;;;;;4987234;28;20218;-73
2021/12/04 06:30:25;;;;;;;10.00;7.53;;;-0.30;99.90;;;;;;4991763;28;20548;-76
2021/12/04 06:32:53;;;;;;;7.00;6.37;;;-0.30;99.90;;;;;;4991078;28;20189;-74
2021/12/04 06:35:20;;;;;;;8.33;7.53;;;-0.30;99.90;;;;;;4993854;28;20214;-74
2021/12/04 06:37:48;;;;;;;8.00;7.20;;;-0.30;99.90;;;;;;4975534;28;20205;-75
2021/12/04 06:40:15;;;;;;;7.17;6.47;;;-0.30;99.90;;;;;;4974337;28;20185;-75
2021/12/04 06:42:42;;;;;;;8.47;7.63;;;-0.30;99.90;;;;;;4991089;28;20194;-75
2021/12/04 06:45:09;;;;;;;8.90;8.10;;;-0.40;99.90;;;;;;4992801;28;20186;-75
2021/12/04 06:47:36;;;;;;;7.63;6.93;;;-0.30;99.90;;;;;;4990421;28;20205;-75
2021/12/04 06:50:08;;;;;;;8.97;7.73;;;-0.30;99.90;;;;;;4991270;28;20184;-74
2021/12/04 06:52:34;;;;;;;8.80;7.90;;;-0.30;99.90;;;;;;4988842;28;20178;-75
2021/12/04 06:55:02;;;;;;;7.67;6.97;;;-0.30;99.90;;;;;;4990895;28;20645;-74
2021/12/04 06:57:33;;;;;;;8.43;7.50;;;-0.30;99.90;;;;;;4987282;28;20264;-75
2021/12/04 06:59:59;;;;;;;8.23;7.17;;;-0.30;99.90;;;;;;4993291;28;20206;-75
2021/12/04 07:02:25;;;;;;;8.40;7.60;;;-0.30;99.90;;;;;;4993450;28;20209;-75
2021/12/04 07:04:50;;;;;;;8.47;7.77;;;-0.30;99.90;;;;;;4988331;28;20277;-74
2021/12/04 07:07:17;;;;;;;9.17;7.10;;;-0.30;99.90;;;;;;4986069;28;20553;-74
2021/12/04 07:09:43;;;;;;;9.77;8.20;;;-0.30;99.90;;;;;;4986718;28;20228;-76
2021/12/04 07:12:10;;;;;;;7.80;7.10;;;-0.40;99.90;;;;;;4982729;28;20181;-76
2021/12/04 07:14:36;;;;;;;8.40;7.60;;;-0.40;99.90;;;;;;4979904;28;20659;-75
2021/12/04 07:17:04;;;;;;;8.90;6.67;;;-0.30;99.90;;;;;;4977871;28;20285;-75
2021/12/04 07:19:31;;;;;;;8.87;7.93;;;-0.20;99.90;;;;;;4966033;28;20272;-76
2021/12/04 07:21:57;;;;;;;7.50;6.80;;;-0.20;99.90;;;;;;4969960;28;20205;-75
2021/12/04 07:24:23;;;;;;;8.00;7.20;;;-0.10;99.90;;;;;;4985501;28;20189;-76
2021/12/04 07:26:49;;;;;;;8.83;8.03;;;-0.10;99.90;;;;;;4986980;28;20220;-73
2021/12/04 07:29:14;;;;;;;8.63;7.70;;;0.00;99.90;;;;;;4989009;28;20199;-76
2021/12/04 07:31:40;;;;;;;10.30;8.00;;;0.00;99.90;;;;;;4978975;28;20178;-74
2021/12/04 07:34:06;;;;;;;8.33;7.50;;;0.00;99.90;;;;;;4977744;28;20336;-74
2021/12/04 07:36:33;;;;;;;8.83;7.93;;;0.00;99.90;;;;;;4976765;28;20206;-74
2021/12/04 07:38:59;;;;;;;8.73;7.90;;;0.00;99.90;;;;;;4980501;28;20186;-74
2021/12/04 07:41:28;;;;;;;8.33;7.53;;;0.10;99.90;;;;;;4980920;28;20178;-74
2021/12/04 07:43:54;;;;;;;10.10;7.77;;;0.00;99.90;;;;;;4965447;28;20193;-73
2021/12/04 07:46:20;;;;;;;7.97;7.27;;;0.00;99.90;;;;;;4980039;28;20218;-74
2021/12/04 07:48:46;;;;;;;8.47;7.57;;;0.10;99.90;;;;;;4977461;28;20262;-73
2021/12/04 07:51:13;;;;;;;8.13;7.33;;;0.20;99.90;;;;;;4979934;28;20587;-74
2021/12/04 07:53:39;;;;;;;7.67;6.87;;;0.10;99.90;;;;;;4976364;28;20304;-73
2021/12/04 07:56:06;;;;;;;8.07;7.27;;;0.10;99.90;;;;;;4980898;28;20265;-73
2021/12/04 07:58:32;;;;;;;7.97;7.10;;;0.20;99.90;;;;;;4978303;28;20189;-74
2021/12/04 08:00:57;;;;;;;10.80;7.80;;;0.20;99.90;;;;;;4983713;28;20194;-74
2021/12/04 08:03:23;;;;;;;8.17;7.20;;;0.30;99.90;;;;;;4987138;28;20193;-74
2021/12/04 08:05:50;;;;;;;8.20;7.47;;;0.30;99.90;;;;;;4986246;28;20209;-74
2021/12/04 08:08:16;;;;;;;8.57;7.67;;;0.20;99.90;;;;;;4971472;28;20696;-73
2021/12/04 08:10:41;;;;;;;7.67;6.97;;;0.10;99.90;;;;;;4986697;28;20256;-74
2021/12/04 08:13:07;;;;;;;7.27;6.57;;;0.10;99.90;;;;;;4987960;28;20182;-75
2021/12/04 08:15:35;;;;;;;9.07;7.73;;;0.20;99.90;;;;;;4992109;28;20182;-73
2021/12/04 08:18:01;;;;;;;7.77;7.07;;;0.30;99.90;;;;;;4988720;28;20743;-74
2021/12/04 08:20:26;;;;;;;8.13;7.37;;;0.30;99.90;;;;;;4990388;28;20207;-74
2021/12/04 08:22:52;;;;;;;8.20;7.27;;;0.30;99.90;;;;;;4995929;28;20190;-75
2021/12/04 08:25:19;;;;;;;8.03;7.23;;;0.30;99.90;;;;;;4992590;28;20253;-74
2021/12/04 08:27:46;;;;;;;8.43;7.63;;;0.40;99.90;;;;;;4984021;28;20225;-74
2021/12/04 08:30:17;;;;;;;8.90;8.00;;;0.40;99.90;;;;;;4995658;28;20181;-74
2021/12/04 08:32:44;;;;;;;7.60;6.93;;;0.30;99.90;;;;;;4991262;28;20378;-74
2021/12/04 08:35:12;;;;;;;8.60;7.60;;;0.30;99.90;;;;;;4994171;28;20180;-74
2021/12/04 08:37:38;;;;;;;8.77;7.90;;;0.30;99.90;;;;;;4981953;28;20281;-74
2021/12/04 08:40:09;;;;;;;7.33;6.60;;;0.20;99.90;;;;;;4993743;28;20602;-74
2021/12/04 08:42:35;;;;;;;9.07;7.77;;;0.30;99.90;;;;;;4990777;28;20210;-74
2021/12/04 08:45:01;;;;;;;8.33;7.53;;;0.30;99.90;;;;;;4992725;28;20198;-74
2021/12/04 08:47:26;;;;;;;8.47;7.43;;;0.30;99.90;;;;;;4980392;28;20572;-74
2021/12/04 08:49:52;;;;;;;8.43;7.63;;;0.40;99.90;;;;;;4976952;28;20217;-74
2021/12/04 08:52:18;;;;;;;8.77;7.87;;;0.50;99.90;;;;;;4986972;28;20226;-73
2021/12/04 08:54:44;;;;;;;9.50;7.57;;;0.50;99.90;;;;;;4990539;28;20182;-72
2021/12/04 08:57:10;;;;;;;8.53;7.73;;;0.40;99.90;;;;;;4984090;28;20209;-73
2021/12/04 08:59:36;;;;;;;9.87;7.77;;;0.40;99.90;;;;;;4988993;28;20224;-73
2021/12/04 09:02:03;;;;;;;8.43;7.63;;;0.40;99.90;;;;;;4989648;28;20186;-73
2021/12/04 09:04:31;;;;;;;8.30;7.50;;;0.40;99.90;;;;;;4990573;28;20608;-73
2021/12/04 09:06:58;;;;;;;9.03;8.23;;;0.50;99.90;;;;;;4986373;28;20214;-73
2021/12/04 09:09:25;;;;;;;9.20;8.17;;;0.60;99.90;;;;;;4990474;28;20186;-73
2021/12/04 09:11:59;;;;;;;8.90;8.07;;;0.60;99.90;;;;;;4979808;28;20182;-72
2021/12/04 09:14:28;;;;;;;10.17;8.20;;;0.60;99.90;;;;;;4991174;28;20181;-74
2021/12/04 09:16:55;;;;;;;9.07;8.20;;;0.60;99.90;;;;;;4984409;28;20720;-76
2021/12/04 09:19:22;;;;;;;9.47;8.57;;;0.60;99.90;;;;;;4990215;28;20190;-74
2021/12/04 09:21:49;;;;;;;9.73;8.20;;;0.60;99.90;;;;;;4992076;28;20182;-73
2021/12/04 09:24:17;;;;;;;9.30;8.40;;;0.70;99.90;;;;;;4994104;28;20201;-73
2021/12/04 09:32:12;;;;;;;8.87;7.97;;;0.70;99.90;;;;;;4986851;28;20548;-73
2021/12/04 10:02:14;;;;;;;9.60;8.60;;;1.00;99.90;;;;;;4985079;28;20195;-73
2021/12/04 10:34:35;;;;;;;9.23;8.33;;;1.00;99.90;;;;;;4981999;28;20177;-73
2021/12/04 10:37:06;;;;;;;9.03;8.20;;;1.10;99.90;;;;;;4987891;28;20685;-72
2021/12/04 10:39:32;;;;;;;9.43;8.57;;;1.10;99.90;;;;;;4993057;28;20197;-75
2021/12/04 10:42:00;;;;;;;9.80;8.70;;;1.00;99.90;;;;;;4990465;28;20194;-73
2021/12/04 10:44:26;;;;;;;9.50;8.60;;;1.00;99.90;;;;;;4990447;28;20185;-74
2021/12/04 10:47:07;;;;;;;9.23;8.33;;;0.80;99.90;;;;;;4986620;28;20684;-72
2021/12/04 10:52:59;;;;;;;10.47;8.57;;;0.80;99.90;;;;;;4986375;28;20182;-74
2021/12/04 10:55:31;;;;;;;9.30;8.40;;;0.80;99.90;;;;;;4990346;28;20182;-74
2021/12/04 11:03:28;;;;;;;8.87;7.97;;;0.90;99.90;;;;;;4982807;28;20174;-75
2021/12/04 11:06:42;;;;;;;9.00;8.10;;;0.80;99.90;;;;;;4989744;28;20216;-75
2021/12/04 11:35:09;;;;;;;10.60;9.37;;;0.90;99.90;;;;;;4984978;28;20553;-71
2021/12/04 11:39:55;;;;;;;9.60;8.70;;;1.10;99.90;;;;;;4987394;28;20296;-71
2021/12/04 11:42:41;;;;;;;9.50;8.50;;;1.00;99.90;;;;;;4984131;28;20653;-71
2021/12/04 11:45:17;;;;;;;9.23;8.33;;;1.00;99.90;;;;;;4982161;28;20185;-71
2021/12/04 11:47:46;;;;;;;9.53;8.57;;;1.00;99.90;;;;;;4980929;28;20210;-72
2021/12/04 11:50:19;;;;;;;9.27;8.33;;;1.00;99.90;;;;;;4982094;28;20187;-71
2021/12/04 11:52:48;;;;;;;9.63;8.63;;;1.10;99.90;;;;;;4978824;28;20186;-71
2021/12/04 11:55:15;;;;;;;9.37;8.57;;;1.20;99.90;;;;;;4979290;28;20177;-71
2021/12/04 11:57:42;;;;;;;9.03;8.13;;;1.20;99.90;;;;;;4967105;28;20218;-71
2021/12/04 12:00:28;;;;;;;9.20;7.27;;;1.30;99.90;;;;;;4986887;28;20186;-72
2021/12/04 12:03:32;;;;;;;9.37;8.50;;;1.30;99.90;;;;;;4962057;28;20226;-76
2021/12/04 12:06:07;;;;;;;9.23;8.33;;;1.30;99.90;;;;;;4982034;28;20673;-72
2021/12/04 12:08:43;;;;;;;9.30;8.40;;;1.20;99.90;;;;;;4985860;28;20178;-76
2021/12/04 12:11:28;;;;;;;8.80;8.07;;;1.20;99.90;;;;;;4980308;28;20182;-78
2021/12/04 12:14:10;;;;;;;7.90;7.20;;;1.20;99.90;;;;;;4985065;28;20174;-78
2021/12/04 12:16:51;;;;;;;9.10;8.30;;;1.10;99.90;;;;;;4982992;28;20238;-78
2021/12/04 12:19:26;;;;;;;8.90;8.10;;;1.10;99.90;;;;;;4960804;28;20179;-78
2021/12/04 12:22:06;;;;;;;8.67;7.87;;;1.20;99.90;;;;;;4979981;28;20535;-80
2021/12/04 12:38:28;;;;;;;10.67;8.67;;;1.40;99.90;;;;;;4984954;28;20332;-77
2021/12/04 12:41:05;;;;;;;8.83;7.60;;;1.50;99.90;;;;;;4985911;28;20183;-77
2021/12/04 12:43:39;;;;;;;8.10;7.40;;;1.40;99.90;;;;;;4981863;28;20743;-80
2021/12/04 12:46:06;;;;;;;9.80;8.90;;;1.20;99.90;;;;;;4973412;28;20202;-74
2021/12/04 12:48:46;;;;;;;9.07;8.27;;;1.10;99.90;;;;;;4984121;28;20182;-74
2021/12/04 12:51:11;;;;;;;8.97;7.67;;;1.20;99.90;;;;;;4984102;28;20185;-75
2021/12/04 12:53:46;;;;;;;8.93;7.97;;;1.20;99.90;;;;;;4962836;28;20232;-74
2021/12/04 12:56:14;;;;;;;9.90;8.90;;;1.20;99.90;;;;;;4980195;28;20545;-75
2021/12/04 13:13:35;;;;;;;8.67;7.87;;;1.20;99.90;;;;;;4980582;28;20584;-74
2021/12/04 13:16:12;;;;;;;8.23;7.43;;;1.20;99.90;;;;;;4982169;28;20332;-74
2021/12/04 13:18:38;;;;;;;8.57;7.40;;;1.20;99.90;;;;;;4980937;28;20182;-74
2021/12/04 13:21:10;;;;;;;8.80;7.90;;;1.20;99.90;;;;;;4982669;28;20198;-74
2021/12/04 13:23:37;;;;;;;8.73;7.90;;;1.10;99.90;;;;;;4988623;28;20189;-75
2021/12/04 13:26:07;;;;;;;9.70;7.70;;;1.10;99.90;;;;;;4986266;28;20206;-75
2021/12/04 13:28:35;;;;;;;9.53;8.63;;;1.10;99.90;;;;;;4984072;28;20258;-75
2021/12/04 13:31:01;;;;;;;8.67;7.77;;;1.00;99.90;;;;;;4984948;28;20225;-75
2021/12/04 13:33:32;;;;;;;9.20;8.30;;;1.10;99.90;;;;;;4984769;28;20235;-74
2021/12/04 13:35:58;;;;;;;10.90;9.00;;;1.10;99.90;;;;;;4985059;28;20186;-74
2021/12/04 13:38:26;;;;;;;8.93;8.03;;;1.10;99.90;;;;;;4986391;28;20211;-74
2021/12/04 13:40:54;;;;;;;11.13;9.23;;;1.10;99.90;;;;;;4986655;28;20197;-75
2021/12/04 13:43:23;;;;;;;8.93;8.07;;;1.10;99.90;;;;;;4986304;28;20182;-76
2021/12/04 13:45:57;;;;;;;9.70;8.73;;;1.00;99.90;;;;;;4986823;28;20300;-73
2021/12/04 13:48:24;;;;;;;10.00;8.83;;;1.10;99.90;;;;;;4974815;28;20185;-72
2021/12/04 13:50:50;;;;;;;8.40;7.50;;;1.10;99.90;;;;;;4983773;28;20183;-72
2021/12/04 13:53:28;;;;;;;8.93;7.43;;;1.10;99.90;;;;;;4984088;28;20193;-72
2021/12/04 13:56:10;;;;;;;8.30;7.50;;;1.10;99.90;;;;;;4983770;28;20197;-72
2021/12/04 13:58:56;;;;;;;8.57;7.63;;;1.10;99.90;;;;;;4985152;28;20177;-72
2021/12/04 14:01:24;;;;;;;8.50;7.80;;;1.10;99.90;;;;;;4984793;28;20186;-72
2021/12/04 14:03:57;;;;;;;8.63;7.50;;;1.10;99.90;;;;;;4982640;28;20269;-72
2021/12/04 14:06:23;;;;;;;8.73;7.97;;;1.10;99.90;;;;;;4981086;28;20751;-72
2021/12/04 14:09:05;;;;;;;7.17;6.53;;;1.10;99.90;;;;;;4985627;28;20190;-73
2021/12/04 14:11:36;;;;;;;9.07;7.30;;;1.10;99.90;;;;;;4990318;28;20188;-74
2021/12/04 14:14:10;;;;;;;8.53;7.73;;;1.20;99.90;;;;;;4991911;28;20663;-73
2021/12/04 14:16:36;;;;;;;8.47;7.67;;;1.20;99.90;;;;;;4984453;28;20705;-74
2021/12/04 14:19:25;;;;;;;7.80;7.13;;;1.30;99.90;;;;;;4993344;28;20242;-74
2021/12/04 14:21:55;;;;;;;7.43;6.80;;;1.20;99.90;;;;;;4983142;28;21375;-73
2021/12/04 14:24:37;;;;;;;8.73;7.93;;;1.20;99.90;;;;;;4984142;28;20265;-72
2021/12/04 14:27:05;;;;;;;8.50;7.70;;;1.10;99.90;;;;;;4990216;28;20257;-73
2021/12/04 14:29:36;;;;;;;7.60;6.97;;;1.20;99.90;;;;;;4985297;28;20186;-72
2021/12/04 14:32:05;;;;;;;8.40;7.70;;;1.20;99.90;;;;;;4985834;28;20274;-72
2021/12/04 14:34:32;;;;;;;8.53;7.77;;;1.20;99.90;;;;;;4970053;28;20187;-72
2021/12/04 14:37:07;;;;;;;8.87;8.13;;;1.20;99.90;;;;;;4988129;28;20630;-72
2021/12/04 14:39:33;;;;;;;8.70;7.90;;;1.20;99.90;;;;;;4983629;28;20169;-72
2021/12/04 14:41:59;;;;;;;7.93;7.17;;;1.00;99.90;;;;;;4971123;28;20186;-76
2021/12/04 14:44:25;;;;;;;8.67;7.77;;;1.10;99.90;;;;;;4985332;28;20181;-76
2021/12/04 14:46:52;;;;;;;8.53;7.83;;;1.00;99.90;;;;;;4989496;28;20240;-77
2021/12/04 14:49:18;;;;;;;9.13;8.23;;;1.00;99.90;;;;;;4984378;28;20170;-75
2021/12/04 14:51:46;;;;;;;8.50;7.67;;;1.00;99.90;;;;;;4989273;28;20271;-75
2021/12/04 14:54:12;;;;;;;8.83;8.03;;;1.00;99.90;;;;;;4965279;28;20556;-72
2021/12/04 14:56:38;;;;;;;8.93;8.13;;;0.90;99.90;;;;;;4988360;28;20208;-72
2021/12/04 14:59:15;;;;;;;9.87;8.73;;;0.90;99.90;;;;;;4992550;28;20567;-72
2021/12/04 15:01:40;;;;;;;8.57;7.80;;;0.90;99.90;;;;;;4988723;28;20652;-72
2021/12/04 15:04:06;;;;;;;10.30;8.57;;;0.90;99.90;;;;;;4985577;28;20268;-72
2021/12/04 15:06:37;;;;;;;8.47;7.67;;;0.90;99.90;;;;;;4988035;28;20721;-72
2021/12/04 15:09:11;;;;;;;8.07;7.37;;;0.90;99.90;;;;;;4989800;28;20185;-71
2021/12/04 15:11:42;;;;;;;8.80;8.00;;;0.90;99.90;;;;;;4983596;28;20186;-71
2021/12/04 15:14:13;;;;;;;8.30;7.50;;;1.00;99.90;;;;;;4982598;28;20197;-72
2021/12/04 15:16:51;;;;;;;8.37;7.53;;;1.00;99.90;;;;;;4988856;28;20252;-72
2021/12/04 15:19:38;;;;;;;8.00;7.40;;;1.00;99.90;;;;;;4991452;28;20657;-72
2021/12/04 15:22:03;;;;;;;8.50;7.57;;;1.00;99.90;;;;;;4988367;28;20182;-72
2021/12/04 15:24:35;;;;;;;8.70;7.83;;;1.00;99.90;;;;;;4974153;28;20182;-73
2021/12/04 15:27:07;;;;;;;8.30;7.50;;;1.00;99.90;;;;;;4985748;28;20750;-72
2021/12/04 15:29:35;;;;;;;8.73;7.93;;;1.00;99.90;;;;;;4989244;28;20641;-72
2021/12/04 15:32:06;;;;;;;8.30;7.50;;;1.10;99.90;;;;;;4987461;28;20181;-72
2021/12/04 15:34:44;;;;;;;7.50;6.90;;;1.00;99.90;;;;;;4985272;28;20199;-71
2021/12/04 15:37:11;;;;;;;9.17;8.27;;;1.00;99.90;;;;;;4988321;28;20194;-72
2021/12/04 15:39:41;;;;;;;8.80;8.00;;;0.90;99.90;;;;;;4988576;28;20196;-72
2021/12/04 15:45:01;;;;;;;8.37;7.57;;;1.10;99.90;;;;;;4984562;28;20189;-74
2021/12/04 15:47:50;;;;;;;15.20;8.07;;;1.00;99.90;;;;;;4985150;28;20209;-74
2021/12/04 15:53:22;;;;;;;8.27;7.47;;;1.00;99.90;;;;;;4945017;28;20658;-71
2021/12/04 15:55:53;;;;;;;8.43;7.67;;;1.10;99.90;;;;;;4969413;28;20268;-74
2021/12/04 15:58:21;;;;;;;9.50;7.83;;;1.10;99.90;;;;;;4980035;28;20213;-73
2021/12/04 16:00:53;;;;;;;8.80;8.00;;;1.10;99.90;;;;;;4986556;28;20189;-73
2021/12/04 16:03:26;;;;;;;8.77;7.93;;;1.00;99.90;;;;;;4987299;28;20189;-73
2021/12/04 16:06:00;;;;;;;8.30;7.50;;;0.90;99.90;;;;;;4969028;28;20859;-71
2021/12/04 16:08:29;;;;;;;9.27;8.37;;;0.90;99.90;;;;;;4980423;28;20178;-71
2021/12/04 16:10:56;;;;;;;9.80;7.43;;;1.00;99.90;;;;;;4985139;28;20303;-72
2021/12/04 16:13:30;;;;;;;8.93;8.13;;;1.10;99.90;;;;;;4980532;28;20226;-72
2021/12/04 16:15:57;;;;;;;8.70;7.90;;;1.10;99.90;;;;;;4977333;28;20188;-73
2021/12/04 16:18:25;;;;;;;8.67;7.87;;;1.00;99.90;;;;;;4985077;28;20681;-73
2021/12/04 16:20:51;;;;;;;8.13;7.27;;;1.00;99.90;;;;;;4990068;28;20196;-72
2021/12/04 16:23:17;;;;;;;7.07;6.47;;;1.10;99.90;;;;;;4988521;28;20708;-72